createdAt,value
2023-03-19T00:04:28.503Z,71.29
2023-03-19T00:09:31.481Z,70.61
2023-03-19T00:14:35.705Z,70.82
2023-03-19T00:19:38.461Z,70.53
2023-03-19T00:24:41.187Z,68.99
2023-03-19T00:29:45.265Z,69.53
2023-03-19T00:34:48.224Z,71.23
2023-03-19T00:39:53.913Z,72.20
2023-03-19T00:44:58.305Z,72.21
2023-03-19T00:50:01.238Z,71.84
2023-03-19T00:55:04.036Z,72.13
2023-03-19T01:00:10.768Z,71.61
2023-03-19T01:05:14.019Z,71.12
2023-03-19T01:10:18.851Z,71.94
2023-03-19T01:20:24.710Z,72.10
2023-03-19T01:25:27.726Z,73.37
2023-03-19T01:30:40.995Z,74.22
2023-03-19T01:35:47.658Z,73.60
2023-03-19T01:40:52.230Z,73.63
2023-03-19T01:46:01.588Z,73.36
2023-03-19T01:51:28.715Z,72.45
2023-03-19T01:56:37.468Z,72.45
2023-03-19T02:01:53.264Z,71.67
2023-03-19T02:06:57.429Z,72.00
2023-03-19T02:12:02.717Z,75.25
2023-03-19T02:17:08.503Z,75.46
2023-03-19T02:22:13.900Z,76.55
2023-03-19T02:27:18.558Z,77.54
2023-03-19T02:32:24.204Z,76.56
2023-03-19T02:37:31.918Z,76.89
2023-03-19T02:42:37.716Z,77.06
2023-03-19T02:47:40.938Z,76.99
2023-03-19T02:52:43.707Z,76.73
2023-03-19T02:57:48.069Z,75.12
2023-03-19T03:02:50.841Z,77.77
2023-03-19T03:07:53.787Z,76.55
2023-03-19T03:12:58.295Z,76.79
2023-03-19T03:18:01.321Z,79.98
2023-03-19T03:23:04.083Z,82.29
2023-03-19T03:28:08.727Z,80.82
2023-03-19T03:33:11.879Z,79.15
2023-03-19T03:38:14.619Z,82.41
2023-03-19T03:43:19.264Z,80.26
2023-03-19T03:48:22.735Z,80.09
2023-03-19T03:53:26.045Z,80.93
2023-03-19T03:58:30.240Z,81.39
2023-03-19T04:03:33.093Z,81.24
2023-03-19T04:08:35.953Z,79.54
2023-03-19T04:13:40.685Z,79.33
2023-03-19T04:18:43.901Z,80.93
2023-03-19T04:23:46.745Z,81.34
2023-03-19T04:28:51.678Z,80.25
2023-03-19T04:33:54.541Z,81.65
2023-03-19T04:38:57.302Z,81.02
2023-03-19T04:44:02.234Z,81.61
2023-03-19T04:49:06.022Z,79.56
2023-03-19T04:54:09.926Z,80.66
2023-03-19T04:59:14.712Z,80.02
2023-03-19T05:04:18.678Z,79.83
2023-03-19T05:09:23.464Z,77.95
2023-03-19T05:14:28.321Z,79.86
2023-03-19T05:19:37.332Z,81.49
2023-03-19T05:24:40.844Z,80.17
2023-03-19T05:29:46.864Z,78.81
2023-03-19T05:35:15.813Z,78.04
2023-03-19T05:40:19.126Z,77.06
2023-03-19T05:45:24.232Z,77.60
2023-03-19T05:50:31.656Z,77.57
2023-03-19T05:55:55.622Z,79.64
2023-03-19T06:01:00.389Z,78.06
2023-03-19T06:06:03.394Z,76.47
2023-03-19T06:11:14.409Z,77.37
2023-03-19T06:16:20.489Z,75.90
2023-03-19T06:21:29.630Z,74.45
2023-03-19T06:26:35.994Z,74.51
2023-03-19T06:31:46.062Z,73.15
2023-03-19T06:36:59.865Z,71.50
2023-03-19T06:42:02.775Z,72.21
2023-03-19T06:47:08.505Z,69.17
2023-03-19T06:52:13.079Z,69.57
2023-03-19T06:57:15.888Z,66.44
2023-03-19T07:02:20.045Z,66.45
2023-03-19T07:07:23.155Z,66.33
2023-03-19T07:12:27.778Z,65.98
2023-03-19T07:17:32.059Z,65.37
2023-03-19T07:22:34.833Z,66.36
2023-03-19T07:27:37.646Z,62.99
2023-03-19T07:32:42.853Z,53.22
2023-03-19T07:37:45.867Z,49.60
2023-03-19T07:42:48.727Z,50.73
2023-03-19T07:47:53.206Z,52.61
2023-03-19T07:52:56.263Z,54.96
2023-03-19T07:57:59.278Z,57.28
2023-03-19T08:03:04.364Z,57.52
2023-03-19T08:08:07.536Z,57.37
2023-03-19T08:13:10.441Z,54.86
2023-03-19T08:18:14.628Z,56.20
2023-03-19T08:23:17.589Z,54.06
2023-03-19T08:28:21.132Z,54.22
2023-03-19T08:33:25.457Z,52.92
2023-03-19T08:38:28.254Z,49.88
2023-03-19T08:43:31.530Z,51.60
2023-03-19T08:48:35.731Z,51.32
2023-03-19T08:53:39.505Z,53.16
2023-03-19T08:58:42.747Z,53.46
2023-03-19T09:03:47.201Z,52.69
2023-03-19T09:08:49.917Z,51.05
2023-03-19T09:13:52.836Z,50.62
2023-03-19T09:18:59.303Z,48.03
2023-03-19T09:24:02.534Z,45.31
2023-03-19T09:29:05.299Z,44.77
2023-03-19T09:34:09.490Z,45.85
2023-03-19T09:39:12.308Z,46.91
2023-03-19T09:44:21.082Z,46.56
2023-03-19T09:49:27.456Z,46.19
2023-03-19T09:54:33.921Z,43.14
2023-03-19T09:59:36.937Z,43.75
2023-03-19T10:04:53.592Z,41.83
2023-03-19T10:10:11.334Z,43.48
2023-03-19T10:15:22.355Z,43.60
2023-03-19T10:20:42.004Z,43.77
2023-03-19T10:25:45.836Z,42.52
2023-03-19T10:30:58.207Z,42.55
2023-03-19T10:36:06.997Z,44.41
2023-03-19T10:41:25.691Z,43.98
2023-03-19T10:46:28.642Z,43.31
2023-03-19T10:51:33.373Z,41.57
2023-03-19T10:56:36.173Z,41.75
2023-03-19T11:01:41.649Z,41.56
2023-03-19T11:06:50.235Z,41.60
2023-03-19T11:11:58.718Z,43.79
2023-03-19T11:17:06.511Z,45.14
2023-03-19T11:22:18.861Z,45.47
2023-03-19T11:27:31.610Z,44.71
2023-03-19T11:32:57.638Z,44.51
2023-03-19T11:38:03.580Z,42.09
2023-03-19T11:43:40.505Z,41.86
2023-03-19T11:49:07.133Z,43.20
2023-03-19T11:54:22.022Z,42.72
2023-03-19T11:59:54.918Z,43.98
2023-03-19T12:05:06.646Z,47.52
2023-03-19T12:10:30.045Z,47.40
2023-03-19T12:15:40.888Z,47.71
2023-03-19T12:20:54.963Z,46.83
2023-03-19T12:26:06.105Z,45.57
2023-03-19T12:31:49.155Z,45.45
2023-03-19T12:36:58.491Z,47.05
2023-03-19T12:42:06.701Z,45.65
2023-03-19T12:47:15.964Z,46.62
2023-03-19T12:52:23.682Z,45.85
2023-03-19T12:57:35.723Z,45.76
2023-03-19T13:02:44.649Z,47.02
2023-03-19T13:07:52.940Z,47.25
2023-03-19T13:12:58.013Z,48.09
2023-03-19T13:18:07.971Z,49.80
2023-03-19T13:23:14.785Z,49.08
2023-03-19T13:28:28.112Z,50.81
2023-03-19T13:33:31.700Z,49.67
2023-03-19T13:38:41.037Z,49.34
2023-03-19T13:43:53.988Z,48.31
2023-03-19T13:49:09.562Z,51.26
2023-03-19T13:54:19.968Z,55.85
2023-03-19T13:59:27.820Z,57.44
2023-03-19T14:04:32.579Z,55.06
2023-03-19T14:09:39.822Z,52.83
2023-03-19T14:14:48.653Z,51.50
2023-03-19T14:19:53.193Z,51.46
2023-03-19T14:25:03.261Z,50.55
2023-03-19T14:30:17.032Z,50.12
2023-03-19T14:35:21.173Z,51.73
2023-03-19T14:40:26.995Z,51.05
2023-03-19T14:45:58.588Z,49.14
2023-03-19T14:51:27.872Z,50.91
2023-03-19T14:56:33.497Z,51.39
2023-03-19T15:01:42.113Z,53.99
2023-03-19T15:06:51.037Z,54.82
2023-03-19T15:12:11.507Z,53.32
2023-03-19T15:17:22.436Z,56.46
2023-03-19T15:22:31.229Z,56.41
2023-03-19T15:27:34.441Z,56.21
2023-03-19T15:33:09.049Z,58.48
2023-03-19T15:38:08.026Z,60.67
2023-03-19T15:43:13.773Z,59.24
2023-03-19T15:48:22.535Z,57.35
2023-03-19T15:53:29.173Z,57.81
2023-03-19T15:58:38.092Z,58.76
2023-03-19T16:03:45.314Z,57.40
2023-03-19T16:08:49.366Z,58.72
2023-03-19T16:13:58.007Z,57.97
2023-03-19T16:19:02.224Z,57.75
2023-03-19T16:24:11.286Z,59.45
2023-03-19T16:29:21.523Z,58.87
2023-03-19T16:34:32.197Z,60.34
2023-03-19T16:39:38.015Z,59.33
2023-03-19T16:44:43.668Z,62.73
2023-03-19T16:49:48.766Z,61.99
2023-03-19T16:54:52.884Z,63.26
2023-03-19T16:59:57.809Z,62.99
2023-03-19T17:05:01.986Z,62.76
2023-03-19T17:10:05.216Z,63.28
2023-03-19T17:15:17.519Z,63.69
2023-03-19T17:20:27.213Z,63.65
2023-03-19T17:25:29.948Z,65.18
2023-03-19T17:30:33.617Z,65.59
2023-03-19T17:35:38.004Z,66.73
2023-03-19T17:40:41.038Z,67.70
2023-03-19T17:45:48.395Z,66.63
2023-03-19T17:50:53.794Z,65.88
2023-03-19T17:55:58.863Z,64.42
2023-03-19T18:01:02.147Z,65.63
2023-03-19T18:06:07.095Z,63.82
2023-03-19T18:11:09.882Z,64.10
2023-03-19T18:16:18.464Z,64.60
2023-03-19T18:21:22.665Z,66.12
2023-03-19T18:26:25.943Z,67.55
2023-03-19T18:31:30.239Z,68.21
2023-03-19T18:36:35.686Z,67.62
2023-03-19T18:41:38.852Z,67.17
2023-03-19T18:46:43.128Z,67.89
2023-03-19T18:52:00.985Z,68.62
2023-03-19T18:57:05.762Z,72.60
2023-03-19T19:02:23.535Z,71.73
2023-03-19T19:07:27.717Z,71.10
2023-03-19T19:12:30.523Z,70.08
2023-03-19T19:17:35.127Z,69.88
2023-03-19T19:22:39.287Z,73.85
2023-03-19T19:27:42.104Z,73.78
2023-03-19T19:32:45.660Z,73.57
2023-03-19T19:37:50.085Z,75.14
2023-03-19T19:42:54.557Z,78.25
2023-03-19T19:47:57.974Z,78.43
2023-03-19T19:53:02.524Z,79.81
2023-03-19T19:58:08.589Z,80.61
2023-03-19T20:03:21.123Z,83.01
2023-03-19T20:08:26.991Z,82.46
2023-03-19T20:13:35.170Z,82.97
2023-03-19T20:18:43.319Z,85.33
2023-03-19T20:23:49.817Z,80.05
2023-03-19T20:28:52.999Z,82.70
2023-03-19T20:33:55.951Z,82.88
2023-03-19T20:39:00.332Z,86.07
2023-03-19T20:44:05.627Z,86.90
2023-03-19T20:49:13.919Z,85.45
2023-03-19T20:54:17.841Z,83.69
2023-03-19T20:59:20.983Z,81.88
2023-03-19T21:04:23.831Z,86.43
2023-03-19T21:09:28.505Z,86.23
2023-03-19T21:14:31.240Z,84.23
2023-03-19T21:19:34.040Z,85.14
2023-03-19T21:24:38.273Z,83.24
2023-03-19T21:29:41.107Z,81.91
2023-03-19T21:34:43.833Z,82.06
2023-03-19T21:39:48.542Z,81.44
2023-03-19T21:44:59.955Z,81.20
2023-03-19T21:50:02.700Z,83.45
2023-03-19T21:55:08.191Z,77.45
2023-03-19T22:00:14.365Z,78.96
2023-03-19T22:05:19.986Z,79.71
2023-03-19T22:10:27.886Z,78.41
2023-03-19T22:15:34.935Z,79.70
2023-03-19T22:20:37.818Z,81.21
2023-03-19T22:25:44.093Z,79.10
2023-03-19T22:30:48.166Z,80.77
2023-03-19T22:35:51.713Z,81.52
2023-03-19T22:40:57.391Z,80.92
2023-03-19T22:46:02.761Z,78.41
2023-03-19T22:51:05.904Z,79.50
2023-03-19T22:56:11.845Z,80.71
2023-03-19T23:01:31.011Z,78.81
2023-03-19T23:06:33.826Z,78.75
2023-03-19T23:11:39.441Z,76.17
2023-03-19T23:16:44.326Z,77.24
2023-03-19T23:21:48.792Z,76.74
2023-03-19T23:26:55.210Z,75.97
2023-03-19T23:31:58.812Z,74.86
2023-03-19T23:37:01.816Z,74.70
2023-03-19T23:42:08.588Z,75.65
2023-03-19T23:47:12.447Z,79.14
2023-03-19T23:52:17.635Z,80.93
2023-03-19T23:57:24.228Z,76.28
